Pagrindinis puslapis
METAR-TAF:

METAR-TAF

Oro uostai :

Bergamo oro uostas

Bergamas, Italija

platuma: 45-40N, ilguma: 009-42E, Aukštis: 238 m

Dabartinis oras

Ataskaita buvo paskelbta 35 minutes, ne 02:20 UTC
Vėjas 7 kt iš Šiaurės/Šiaurės Vakarų
Temperatūra 6°C
Drėgmė 93%
Slėgis 1022 hPa
Matomumas: 7000 m
Išsisklaidę debesys ne aukštis 2500 ft
Su prošvaistėmis ne aukštis 3500 ft
lietus

METAR: LIME 180220Z 33007KT 7000 RA SCT025 BKN035 06/05 Q1022 NOSIG

Laikas: 03:55 (02:55 UTC)

Prognozė

Ataskaita buvo paskelbta 3 valandos ir 55 minutes, ne 23:00 UTC
Prognozė galioja nuo 18 metu 00 UTC su 18 metu 24 UTC
Vėjas 5 kt nuo kintamojo kryptimis
Matomumas: 6000 m
Išsisklaidę debesys ne aukštis 2000 ft
Su prošvaistėmis ne aukštis 5000 ft
Laikinai
nuo 18 metu 00 UTC su 18 metu 09 UTC
lietus

TAF: LIME 172300Z 1800/1824 VRB05KT 6000 SCT020 BKN050 TEMPO 1800/1809 RA

Orai ataskaitas ir orų prognozės (METAR, TAF).

turimą stotys yra geltonos ir raudonos taškus žemėlapyje.

Perkelti pele per norėdami pamatyti stoties vardą.

Tada spustelėkite, norėdami matyti oro stebėjimo ir prognozės.

Norėdami pakeisti žemėlapį: spustelėkite ant žalios mygtukų su juodo kryžiaus žemyn,; žalią mygtuką su brūkšneliu, jei norite nutolinti; arba žalių rodyklių gretimoms žemėlapius.


METAR-TAF: